createdAt,value
2018-03-04T00:01:02.827Z,100152.56
2018-03-04T00:02:07.797Z,100157.31
2018-03-04T00:03:12.588Z,100159.84
2018-03-04T00:04:18.241Z,100164.24
2018-03-04T00:05:23.178Z,100158.63
2018-03-04T00:06:27.996Z,100163.05
2018-03-04T00:07:32.750Z,100157.85
2018-03-04T00:08:37.499Z,100162.56
2018-03-04T00:09:42.604Z,100158.27
2018-03-04T00:10:47.653Z,100151.23
2018-03-04T00:11:52.661Z,100157.77
2018-03-04T00:12:57.406Z,100151.80
2018-03-04T00:14:03.157Z,100157.89
2018-03-04T00:15:08.103Z,100156.25
2018-03-04T00:16:13.450Z,100162.72
2018-03-04T00:17:18.825Z,100158.28
2018-03-04T00:18:24.182Z,100156.14
2018-03-04T00:19:28.929Z,100155.34
2018-03-04T00:20:33.772Z,100163.63
2018-03-04T00:21:39.644Z,100167.53
2018-03-04T00:22:44.661Z,100162.39
2018-03-04T00:23:50.154Z,100157.30
2018-03-04T00:24:55.033Z,100154.72
2018-03-04T00:25:59.667Z,100155.47
2018-03-04T00:27:04.414Z,100151.95
2018-03-04T00:28:09.417Z,100155.03
2018-03-04T00:29:14.612Z,100153.41
2018-03-04T00:30:19.676Z,100157.86
2018-03-04T00:31:24.676Z,100147.84
2018-03-04T00:32:29.695Z,100150.35
2018-03-04T00:33:34.563Z,100155.47
2018-03-04T00:34:40.311Z,100153.60
2018-03-04T00:35:45.469Z,100159.61
2018-03-04T00:36:50.716Z,100159.50
2018-03-04T00:37:55.604Z,100157.83
2018-03-04T00:39:00.621Z,100156.91
2018-03-04T00:40:08.025Z,100159.05
2018-03-04T00:41:12.937Z,100159.91
2018-03-04T00:42:18.453Z,100160.80
2018-03-04T00:43:23.389Z,100164.30
2018-03-04T00:44:28.321Z,100158.73
2018-03-04T00:45:33.785Z,100168.83
2018-03-04T00:46:39.475Z,100157.62
2018-03-04T00:47:44.267Z,100168.52
2018-03-04T00:48:49.777Z,100159.41
2018-03-04T00:49:54.891Z,100162.39
2018-03-04T00:50:59.770Z,100168.91
2018-03-04T00:52:04.820Z,100169.38
2018-03-04T00:53:09.623Z,100160.75
2018-03-04T00:54:14.464Z,100160.26
2018-03-04T00:55:19.443Z,100160.66
2018-03-04T00:56:25.125Z,100160.33
2018-03-04T00:57:29.953Z,100162.51
2018-03-04T00:58:34.841Z,100165.12
2018-03-04T00:59:40.121Z,100160.91
2018-03-04T01:00:45.206Z,100158.83
2018-03-04T01:01:50.734Z,100159.37
2018-03-04T01:02:55.636Z,100161.55
2018-03-04T01:04:00.592Z,100159.90
2018-03-04T01:05:05.612Z,100158.22
2018-03-04T01:06:11.628Z,100159.88
2018-03-04T01:07:16.612Z,100156.33
2018-03-04T01:08:21.904Z,100164.97
2018-03-04T01:09:27.108Z,100161.45
2018-03-04T01:10:32.353Z,100157.09
2018-03-04T01:11:38.471Z,100157.42
2018-03-04T01:12:43.574Z,100161.66
2018-03-04T01:13:48.837Z,100162.97
2018-03-04T01:14:53.770Z,100159.05
2018-03-04T01:15:59.121Z,100163.09
2018-03-04T01:17:04.208Z,100157.77
2018-03-04T01:18:09.462Z,100156.01
2018-03-04T01:19:14.561Z,100153.40
2018-03-04T01:20:20.247Z,100154.33
2018-03-04T01:21:25.544Z,100155.04
2018-03-04T01:22:30.534Z,100160.98
2018-03-04T01:23:35.531Z,100160.44
2018-03-04T01:24:41.427Z,100143.59
2018-03-04T01:25:46.550Z,100149.15
2018-03-04T01:26:51.845Z,100152.56
2018-03-04T01:27:57.202Z,100147.83
2018-03-04T01:29:02.364Z,100148.70
2018-03-04T01:30:08.194Z,100150.48
2018-03-04T01:31:13.830Z,100140.92
2018-03-04T01:32:18.870Z,100147.50
2018-03-04T01:33:24.046Z,100141.33
2018-03-04T01:34:29.348Z,100144.39
2018-03-04T01:35:35.093Z,100145.47
2018-03-04T01:36:41.242Z,100141.95
2018-03-04T01:37:46.389Z,100140.17
2018-03-04T01:38:52.579Z,100137.78
2018-03-04T01:39:57.722Z,100140.80
2018-03-04T01:41:03.205Z,100139.82
2018-03-04T01:42:08.814Z,100137.98
2018-03-04T01:43:14.227Z,100140.12
2018-03-04T01:44:19.361Z,100141.42
2018-03-04T01:45:24.904Z,100139.74
2018-03-04T01:46:30.998Z,100148.42
2018-03-04T01:47:37.415Z,100151.22
2018-03-04T01:48:42.452Z,100149.08
2018-03-04T01:49:47.766Z,100139.46
2018-03-04T01:50:53.008Z,100145.80
2018-03-04T01:51:58.171Z,100143.52
2018-03-04T01:53:03.252Z,100141.59
2018-03-04T01:54:09.539Z,100145.48
2018-03-04T01:55:14.752Z,100145.94
2018-03-04T01:56:20.000Z,100147.34
2018-03-04T01:57:25.470Z,100142.13
2018-03-04T01:58:30.742Z,100148.81
2018-03-04T01:59:36.114Z,100150.04
2018-03-04T02:00:42.696Z,100142.52
2018-03-04T02:01:47.803Z,100136.78
2018-03-04T02:02:52.925Z,100138.95
2018-03-04T02:03:58.101Z,100143.66
2018-03-04T02:05:03.329Z,100142.34
2018-03-04T02:06:08.690Z,100138.83
2018-03-04T02:07:14.361Z,100136.23
2018-03-04T02:08:19.507Z,100138.98
2018-03-04T02:09:24.826Z,100139.41
2018-03-04T02:10:29.766Z,100135.87
2018-03-04T02:11:34.860Z,100131.90
2018-03-04T02:12:40.681Z,100134.45
2018-03-04T02:13:46.047Z,100133.98
2018-03-04T02:14:51.340Z,100128.72
2018-03-04T02:15:56.721Z,100128.19
2018-03-04T02:17:01.831Z,100133.80
2018-03-04T02:18:08.005Z,100134.14
2018-03-04T02:19:13.067Z,100126.35
2018-03-04T02:20:18.725Z,100131.65
2018-03-04T02:21:23.810Z,100129.91
2018-03-04T02:22:28.984Z,100126.35
2018-03-04T02:23:34.267Z,100133.20
2018-03-04T02:24:40.293Z,100135.34
2018-03-04T02:25:45.680Z,100134.52
2018-03-04T02:26:51.195Z,100126.23
2018-03-04T02:27:56.361Z,100128.71
2018-03-04T02:29:01.623Z,100126.90
2018-03-04T02:30:09.329Z,100120.47
2018-03-04T02:31:14.834Z,100117.33
2018-03-04T02:32:20.397Z,100121.69
2018-03-04T02:33:25.582Z,100116.16
2018-03-04T02:34:31.016Z,100118.75
2018-03-04T02:35:36.198Z,100123.48
2018-03-04T02:36:41.509Z,100114.70
2018-03-04T02:37:46.668Z,100115.04
2018-03-04T02:38:52.005Z,100115.42
2018-03-04T02:39:57.007Z,100112.75
2018-03-04T02:41:01.963Z,100116.75
2018-03-04T02:42:07.098Z,100100.84
2018-03-04T02:43:12.377Z,100108.30
2018-03-04T02:44:17.318Z,100110.50
2018-03-04T02:45:23.290Z,100107.47
2018-03-04T02:46:28.554Z,100109.32
2018-03-04T02:47:33.791Z,100112.03
2018-03-04T02:48:39.877Z,100109.80
2018-03-04T02:49:45.186Z,100099.42
2018-03-04T02:50:51.117Z,100096.73
2018-03-04T02:51:56.379Z,100093.55
2018-03-04T02:53:01.851Z,100098.66
2018-03-04T02:54:08.096Z,100108.53
2018-03-04T02:55:13.315Z,100099.92
2018-03-04T02:56:18.645Z,100103.77
2018-03-04T02:57:24.186Z,100107.97
2018-03-04T02:58:29.149Z,100106.98
2018-03-04T02:59:34.253Z,100113.92
2018-03-04T03:00:40.475Z,100106.02
2018-03-04T03:01:46.120Z,100108.03
2018-03-04T03:02:51.029Z,100106.75
2018-03-04T03:03:56.580Z,100107.12
2018-03-04T03:05:01.915Z,100113.77
2018-03-04T03:06:08.028Z,100108.01
2018-03-04T03:07:13.196Z,100112.69
2018-03-04T03:08:18.383Z,100109.25
2018-03-04T03:09:23.334Z,100108.37
2018-03-04T03:10:28.539Z,100103.58
2018-03-04T03:11:33.560Z,100104.53
2018-03-04T03:12:38.893Z,100106.64
2018-03-04T03:13:43.802Z,100105.59
2018-03-04T03:14:49.185Z,100103.48
2018-03-04T03:15:54.980Z,100097.92
2018-03-04T03:17:00.774Z,100099.59
2018-03-04T03:18:06.706Z,100099.11
2018-03-04T03:19:11.999Z,100105.66
2018-03-04T03:20:17.256Z,100089.61
2018-03-04T03:21:22.455Z,100096.42
2018-03-04T03:22:27.905Z,100095.67
2018-03-04T03:23:32.718Z,100094.55
2018-03-04T03:24:40.429Z,100098.45
2018-03-04T03:25:45.732Z,100101.56
2018-03-04T03:26:50.537Z,100093.20
2018-03-04T03:27:55.503Z,100088.59
2018-03-04T03:29:01.390Z,100089.95
2018-03-04T03:30:09.018Z,100078.80
2018-03-04T03:31:14.129Z,100077.59
2018-03-04T03:32:19.207Z,100076.47
2018-03-04T03:33:23.958Z,100082.49
2018-03-04T03:34:29.228Z,100085.48
2018-03-04T03:35:34.273Z,100071.20
2018-03-04T03:36:39.432Z,100074.78
2018-03-04T03:37:44.500Z,100074.88
2018-03-04T03:38:49.686Z,100070.97
2018-03-04T03:39:54.182Z,100073.94
2018-03-04T03:40:59.046Z,100069.16
2018-03-04T03:42:04.059Z,100060.03
2018-03-04T03:43:09.471Z,100066.48
2018-03-04T03:44:14.193Z,100065.06
2018-03-04T03:45:19.233Z,100067.17
2018-03-04T03:46:24.213Z,100060.34
2018-03-04T03:47:29.070Z,100065.20
2018-03-04T03:48:33.875Z,100059.04
2018-03-04T03:49:39.378Z,100057.80
2018-03-04T03:50:44.192Z,100055.03
2018-03-04T03:51:48.962Z,100055.42
2018-03-04T03:52:54.232Z,100050.87
2018-03-04T03:53:59.228Z,100050.88
2018-03-04T03:55:03.937Z,100044.41
2018-03-04T03:56:09.693Z,100049.05
2018-03-04T03:57:14.523Z,100050.37
2018-03-04T03:58:19.263Z,100051.53
2018-03-04T03:59:24.359Z,100056.30
2018-03-04T04:00:29.578Z,100057.37
2018-03-04T04:01:34.374Z,100056.08
2018-03-04T04:02:39.010Z,100056.09
2018-03-04T04:03:43.949Z,100052.97
2018-03-04T04:04:48.958Z,100045.00
2018-03-04T04:05:53.778Z,100051.30
2018-03-04T04:06:58.963Z,100054.31
2018-03-04T04:08:03.482Z,100057.47
2018-03-04T04:09:09.190Z,100053.17
2018-03-04T04:10:14.239Z,100048.81
2018-03-04T04:11:19.252Z,100055.69
2018-03-04T04:12:24.060Z,100048.03
2018-03-04T04:13:28.821Z,100059.35
2018-03-04T04:14:33.627Z,100053.34
2018-03-04T04:15:38.410Z,100065.40
2018-03-04T04:16:43.892Z,100061.07
2018-03-04T04:17:48.287Z,100057.19
2018-03-04T04:18:53.111Z,100056.38
2018-03-04T04:19:57.508Z,100057.19
2018-03-04T04:21:02.393Z,100046.75
2018-03-04T04:22:06.867Z,100059.22
2018-03-04T04:23:11.364Z,100059.95
2018-03-04T04:24:16.146Z,100056.89
2018-03-04T04:25:21.004Z,100060.25
2018-03-04T04:26:25.858Z,100064.31
2018-03-04T04:27:30.499Z,100059.53
2018-03-04T04:28:35.092Z,100065.13
2018-03-04T04:29:40.384Z,100061.14
2018-03-04T04:30:45.040Z,100058.19
2018-03-04T04:31:49.629Z,100056.45
2018-03-04T04:32:54.197Z,100061.61
2018-03-04T04:33:58.657Z,100061.56
2018-03-04T04:35:03.041Z,100062.88
2018-03-04T04:36:07.613Z,100052.12
2018-03-04T04:37:12.429Z,100058.41
2018-03-04T04:38:16.823Z,100037.22
2018-03-04T04:39:21.550Z,100043.80
2018-03-04T04:40:26.165Z,100047.80
2018-03-04T04:41:30.540Z,100037.39
2018-03-04T04:42:34.903Z,100049.66
2018-03-04T04:43:39.899Z,100042.41
2018-03-04T04:44:44.336Z,100036.80
2018-03-04T04:45:49.061Z,100031.96
2018-03-04T04:46:53.448Z,100035.47
2018-03-04T04:47:58.241Z,100025.50
2018-03-04T04:49:02.902Z,100027.63
2018-03-04T04:50:07.877Z,100031.97
2018-03-04T04:51:12.352Z,100023.28
2018-03-04T04:52:16.936Z,100025.07
2018-03-04T04:53:21.854Z,100018.55
2018-03-04T04:54:26.501Z,100023.42
2018-03-04T04:55:32.414Z,100032.20
2018-03-04T04:56:38.208Z,100025.70
2018-03-04T04:57:43.530Z,100026.11
2018-03-04T04:58:48.176Z,100023.52
2018-03-04T04:59:53.215Z,100022.23
2018-03-04T05:00:58.362Z,100026.48
2018-03-04T05:02:02.903Z,100026.92
2018-03-04T05:03:08.878Z,100026.06
2018-03-04T05:04:13.371Z,100025.73
2018-03-04T05:05:17.814Z,100027.98
2018-03-04T05:06:22.210Z,100030.05
2018-03-04T05:07:27.233Z,100025.67
2018-03-04T05:08:32.264Z,100028.61
2018-03-04T05:09:36.982Z,100021.33
2018-03-04T05:10:42.842Z,100016.94
2018-03-04T05:11:47.416Z,100022.16
2018-03-04T05:12:51.931Z,100023.63
2018-03-04T05:13:56.335Z,100027.05
2018-03-04T05:15:01.254Z,100027.00
2018-03-04T05:16:07.293Z,100029.14
2018-03-04T05:17:12.171Z,100021.70
2018-03-04T05:18:16.972Z,100033.43
2018-03-04T05:19:21.335Z,100027.05
2018-03-04T05:20:25.876Z,100026.34
2018-03-04T05:21:30.704Z,100020.31
2018-03-04T05:22:35.042Z,100032.12
2018-03-04T05:23:39.442Z,100025.16
2018-03-04T05:24:44.970Z,100027.20
2018-03-04T05:25:49.470Z,100025.30
2018-03-04T05:26:54.017Z,100025.39
2018-03-04T05:27:58.502Z,100016.80
2018-03-04T05:29:03.094Z,100021.17
2018-03-04T05:30:07.931Z,100019.16
2018-03-04T05:31:12.640Z,100022.30
2018-03-04T05:32:17.166Z,100015.73
2018-03-04T05:33:21.567Z,100018.77
2018-03-04T05:34:26.498Z,100013.65
2018-03-04T05:35:30.818Z,100010.27
2018-03-04T05:36:35.391Z,100012.45
2018-03-04T05:37:40.224Z,100008.12
2018-03-04T05:38:45.879Z,100008.99
2018-03-04T05:39:50.874Z,100009.58
2018-03-04T05:40:55.769Z,100007.42
2018-03-04T05:42:01.081Z,100009.08
2018-03-04T05:43:06.255Z,99999.83
2018-03-04T05:44:11.678Z,100005.76
2018-03-04T05:45:17.137Z,100004.09
2018-03-04T05:46:22.030Z,100005.92
2018-03-04T05:47:26.896Z,99993.45
2018-03-04T05:48:31.529Z,99996.56
2018-03-04T05:49:36.206Z,100003.97
2018-03-04T05:50:41.586Z,100000.06
2018-03-04T05:51:46.100Z,99999.34
2018-03-04T05:52:51.004Z,99998.05
2018-03-04T05:53:55.800Z,99999.40
2018-03-04T05:55:01.060Z,99998.93
2018-03-04T05:56:06.953Z,99994.84
2018-03-04T05:57:11.675Z,100004.08
2018-03-04T05:58:16.645Z,100000.23
2018-03-04T05:59:21.629Z,100000.77
2018-03-04T06:00:28.123Z,99997.32
2018-03-04T06:01:32.907Z,99995.11
2018-03-04T06:02:38.173Z,99999.80
2018-03-04T06:03:44.206Z,99999.02
2018-03-04T06:04:49.895Z,99989.50
2018-03-04T06:05:56.265Z,99996.53
2018-03-04T06:07:00.855Z,100000.50
2018-03-04T06:08:05.504Z,100004.46
2018-03-04T06:09:10.314Z,100003.16
2018-03-04T06:10:15.313Z,99994.78
2018-03-04T06:11:20.306Z,99996.08
2018-03-04T06:12:26.874Z,99993.56
2018-03-04T06:13:31.863Z,100000.56
2018-03-04T06:14:36.893Z,99997.05
2018-03-04T06:15:43.179Z,99995.00
2018-03-04T06:16:48.237Z,99993.78
2018-03-04T06:17:53.129Z,99998.56
2018-03-04T06:18:58.375Z,99993.79
2018-03-04T06:20:03.646Z,100000.38
2018-03-04T06:21:09.336Z,99993.08
2018-03-04T06:22:14.597Z,99998.30
2018-03-04T06:23:19.286Z,99994.81
2018-03-04T06:24:25.156Z,99988.72
2018-03-04T06:25:30.081Z,99991.80
2018-03-04T06:26:35.052Z,99992.99
2018-03-04T06:27:40.174Z,99989.51
2018-03-04T06:28:46.092Z,99983.34
2018-03-04T06:29:51.303Z,99985.52
2018-03-04T06:30:57.432Z,99975.52
2018-03-04T06:32:03.071Z,99978.53
2018-03-04T06:33:09.043Z,99982.34
2018-03-04T06:34:15.463Z,99985.84
2018-03-04T06:35:20.679Z,99983.17
2018-03-04T06:36:26.029Z,99987.14
2018-03-04T06:37:31.830Z,99981.05
2018-03-04T06:38:37.139Z,99975.97
2018-03-04T06:39:42.572Z,99978.75
2018-03-04T06:40:47.529Z,99975.92
2018-03-04T06:41:52.795Z,99979.02
2018-03-04T06:42:58.263Z,99973.70
2018-03-04T06:44:02.958Z,99974.91
2018-03-04T06:45:08.420Z,99971.45
2018-03-04T06:46:14.243Z,99971.02
2018-03-04T06:47:19.313Z,99976.64
2018-03-04T06:48:24.591Z,99978.84
2018-03-04T06:49:30.006Z,99980.13
2018-03-04T06:50:35.813Z,99985.35
2018-03-04T06:51:42.116Z,99976.20
2018-03-04T06:52:46.941Z,99979.61
2018-03-04T06:53:52.214Z,99981.35
2018-03-04T06:54:57.322Z,99976.20
2018-03-04T06:56:02.734Z,99980.05
2018-03-04T06:57:08.723Z,99984.93
2018-03-04T06:58:13.839Z,99982.21
2018-03-04T06:59:18.885Z,99982.19
2018-03-04T07:00:24.203Z,99985.34
2018-03-04T07:01:29.707Z,99981.92
2018-03-04T07:02:35.206Z,99983.71
2018-03-04T07:03:41.937Z,99985.58
2018-03-04T07:04:46.950Z,99984.98
2018-03-04T07:05:52.636Z,99988.84
2018-03-04T07:06:57.956Z,99986.31
2018-03-04T07:08:03.076Z,99991.70
2018-03-04T07:09:08.303Z,99988.28
2018-03-04T07:10:14.700Z,99989.33
2018-03-04T07:11:20.020Z,99990.31
2018-03-04T07:12:25.282Z,99979.52
2018-03-04T07:13:30.381Z,99984.45
2018-03-04T07:14:35.395Z,99983.30
2018-03-04T07:15:41.282Z,99985.47
2018-03-04T07:16:46.678Z,99982.34
2018-03-04T07:17:51.734Z,99973.92
2018-03-04T07:18:57.087Z,99974.64
2018-03-04T07:20:02.156Z,99980.38
2018-03-04T07:21:08.145Z,99976.54
2018-03-04T07:22:13.292Z,99986.53
2018-03-04T07:23:18.724Z,99979.94
2018-03-04T07:24:23.881Z,99974.77
2018-03-04T07:25:29.375Z,99982.56
2018-03-04T07:26:34.579Z,99985.13
2018-03-04T07:27:40.512Z,99989.43
2018-03-04T07:28:45.492Z,99982.09
2018-03-04T07:29:50.732Z,99986.89
2018-03-04T07:30:56.109Z,99979.20
2018-03-04T07:32:00.994Z,99984.09
2018-03-04T07:33:06.028Z,99985.09
2018-03-04T07:34:11.146Z,99992.22
2018-03-04T07:35:19.480Z,99988.38
2018-03-04T07:36:38.219Z,99995.36
2018-03-04T07:37:43.786Z,99995.73
2018-03-04T07:38:49.512Z,99992.42
2018-03-04T07:39:54.479Z,99997.58
2018-03-04T07:40:59.407Z,99997.15
2018-03-04T07:42:05.772Z,99994.47
2018-03-04T07:43:12.415Z,99990.20
2018-03-04T07:44:17.597Z,100000.64
2018-03-04T07:45:23.326Z,99995.83
2018-03-04T07:46:28.458Z,99992.69
2018-03-04T07:47:33.521Z,99996.56
2018-03-04T07:48:38.477Z,99994.86
2018-03-04T07:49:43.535Z,100002.64
2018-03-04T07:50:48.595Z,99994.45
2018-03-04T07:51:53.991Z,100001.92
2018-03-04T07:52:59.172Z,99994.55
2018-03-04T07:54:05.075Z,100001.12
2018-03-04T07:55:10.059Z,99994.08
2018-03-04T07:56:16.028Z,99997.13
2018-03-04T07:57:20.980Z,99990.75
2018-03-04T07:58:25.737Z,99990.75
2018-03-04T07:59:30.965Z,99989.91
2018-03-04T08:00:37.007Z,99994.83
2018-03-04T08:01:42.169Z,99990.98
2018-03-04T08:02:47.749Z,99996.60
2018-03-04T08:03:52.679Z,99995.28
2018-03-04T08:04:58.368Z,99997.09
2018-03-04T08:06:03.520Z,99996.59
2018-03-04T08:07:08.915Z,99997.81
2018-03-04T08:08:14.627Z,99990.86
2018-03-04T08:09:19.477Z,99995.34
2018-03-04T08:10:24.606Z,99991.86
2018-03-04T08:11:29.555Z,99997.66
2018-03-04T08:12:34.476Z,99992.09
2018-03-04T08:13:39.745Z,99989.11
2018-03-04T08:14:44.619Z,99985.25
2018-03-04T08:15:49.702Z,99983.95
2018-03-04T08:16:54.630Z,99991.42
2018-03-04T08:17:59.770Z,99991.05
2018-03-04T08:19:05.229Z,99988.52
2018-03-04T08:20:10.579Z,99988.94
2018-03-04T08:21:16.312Z,99986.77
2018-03-04T08:22:21.133Z,99990.39
2018-03-04T08:23:25.908Z,99983.54
2018-03-04T08:24:39.425Z,99981.06
2018-03-04T08:25:44.491Z,99985.90
2018-03-04T08:28:57.881Z,99981.48
2018-03-04T08:30:04.168Z,99991.52
2018-03-04T08:31:09.898Z,99989.83
2018-03-04T08:32:15.170Z,99995.99
2018-03-04T08:33:20.695Z,99989.52
2018-03-04T08:34:25.615Z,99990.33
2018-03-04T08:35:30.519Z,99992.01
2018-03-04T08:36:35.723Z,99992.45
2018-03-04T08:37:40.657Z,99986.84
2018-03-04T08:38:45.832Z,99985.95
2018-03-04T08:39:50.720Z,99990.75
2018-03-04T08:40:55.550Z,99988.97
2018-03-04T08:42:00.568Z,99982.16
2018-03-04T08:43:05.494Z,99978.41
2018-03-04T08:44:10.658Z,99982.37
2018-03-04T08:45:18.287Z,99977.57
2018-03-04T08:46:23.038Z,99984.22
2018-03-04T08:47:27.761Z,99979.09
2018-03-04T08:48:32.715Z,99979.85
2018-03-04T08:49:37.530Z,99980.72
2018-03-04T08:50:42.397Z,99980.25
2018-03-04T08:51:47.631Z,99975.41
2018-03-04T08:52:52.381Z,99976.42
2018-03-04T08:53:57.243Z,99970.80
2018-03-04T08:55:02.320Z,99966.09
2018-03-04T08:56:07.259Z,99969.05
2018-03-04T08:57:12.219Z,99972.06
2018-03-04T08:58:17.445Z,99970.75
2018-03-04T08:59:23.198Z,99973.38
2018-03-04T09:00:28.139Z,99973.38
2018-03-04T09:01:33.235Z,99978.22
2018-03-04T09:02:38.024Z,99972.59
2018-03-04T09:03:42.824Z,99976.18
2018-03-04T09:04:48.836Z,99966.27
2018-03-04T09:05:53.662Z,99965.84
2018-03-04T09:06:58.355Z,99965.84
2018-03-04T09:08:03.533Z,99966.75
2018-03-04T09:09:08.348Z,99964.69
2018-03-04T09:10:13.450Z,99972.29
2018-03-04T09:11:18.426Z,99967.55
2018-03-04T09:12:23.430Z,99978.47
2018-03-04T09:13:28.207Z,99970.23
2018-03-04T09:14:32.924Z,99971.52
2018-03-04T09:15:38.174Z,99970.98
2018-03-04T09:16:43.295Z,99971.34
2018-03-04T09:17:48.052Z,99963.95
2018-03-04T09:18:53.685Z,99964.80
2018-03-04T09:19:59.268Z,99958.34
2018-03-04T09:21:04.519Z,99961.47
2018-03-04T09:22:09.470Z,99966.73
2018-03-04T09:23:15.802Z,99965.55
2018-03-04T09:24:21.508Z,99970.30
2018-03-04T09:25:26.266Z,99967.18
2018-03-04T09:26:30.981Z,99959.78
2018-03-04T09:27:36.148Z,99961.96
2018-03-04T09:28:40.838Z,99957.70
2018-03-04T09:29:45.984Z,99960.44
2018-03-04T09:30:51.470Z,99958.64
2018-03-04T09:31:56.130Z,99957.31
2018-03-04T09:33:01.180Z,99960.41
2018-03-04T09:34:05.977Z,99951.31
2018-03-04T09:35:11.196Z,99952.63
2018-03-04T09:36:16.054Z,99954.31
2018-03-04T09:37:20.814Z,99939.03
2018-03-04T09:38:25.756Z,99946.05
2018-03-04T09:39:30.541Z,99950.87
2018-03-04T09:40:35.663Z,99954.33
2018-03-04T09:41:40.447Z,99958.29
2018-03-04T09:42:45.291Z,99961.80
2018-03-04T09:43:50.205Z,99964.88
2018-03-04T09:44:55.105Z,99961.39
2018-03-04T09:46:00.166Z,99958.27
2018-03-04T09:47:05.323Z,99960.89
2018-03-04T09:48:10.223Z,99954.38
2018-03-04T09:49:15.360Z,99971.84
2018-03-04T09:50:21.207Z,99974.47
2018-03-04T09:51:26.025Z,99973.17
2018-03-04T09:52:30.923Z,99969.20
2018-03-04T09:53:35.842Z,99967.45
2018-03-04T09:54:40.719Z,99974.80
2018-03-04T09:55:45.446Z,99964.81
2018-03-04T09:56:50.472Z,99959.06
2018-03-04T09:57:55.312Z,99958.62
2018-03-04T09:59:00.885Z,99966.90
2018-03-04T10:00:07.680Z,99962.15
2018-03-04T10:01:12.477Z,99966.95
2018-03-04T10:02:17.274Z,99958.20
2018-03-04T10:03:22.020Z,99953.81
2018-03-04T10:04:26.954Z,99945.94
2018-03-04T10:05:31.639Z,99947.75
2018-03-04T10:06:36.402Z,99949.13
2018-03-04T10:07:41.042Z,99940.39
2018-03-04T10:08:45.870Z,99946.05
2018-03-04T10:09:51.198Z,99939.55
2018-03-04T10:10:55.878Z,99945.27
2018-03-04T10:12:01.093Z,99947.91
2018-03-04T10:13:06.099Z,99942.22
2018-03-04T10:14:10.839Z,99937.39
2018-03-04T10:15:17.491Z,99935.62
2018-03-04T10:16:22.246Z,99936.52
2018-03-04T10:17:27.691Z,99940.87
2018-03-04T10:18:32.779Z,99945.22
2018-03-04T10:19:37.636Z,99946.97
2018-03-04T10:20:42.522Z,99949.16
2018-03-04T10:21:47.377Z,99943.07
2018-03-04T10:22:52.263Z,99948.34
2018-03-04T10:23:57.051Z,99939.61
2018-03-04T10:25:02.355Z,99934.80
2018-03-04T10:26:07.287Z,99939.61
2018-03-04T10:27:12.037Z,99936.05
2018-03-04T10:28:16.875Z,99938.69
2018-03-04T10:29:22.307Z,99944.84
2018-03-04T10:30:27.418Z,99933.05
2018-03-04T10:31:32.220Z,99934.36
2018-03-04T10:32:36.988Z,99931.27
2018-03-04T10:33:41.816Z,99921.22
2018-03-04T10:34:46.644Z,99923.84
2018-03-04T10:35:52.477Z,99926.88
2018-03-04T10:36:57.260Z,99927.36
2018-03-04T10:38:02.424Z,99932.17
2018-03-04T10:39:07.283Z,99925.61
2018-03-04T10:40:12.277Z,99925.61
2018-03-04T10:41:17.010Z,99930.84
2018-03-04T10:42:21.781Z,99928.22
2018-03-04T10:43:27.349Z,99931.31
2018-03-04T10:44:32.349Z,99926.06
2018-03-04T10:45:37.368Z,99931.74
2018-03-04T10:46:42.406Z,99932.16
2018-03-04T10:47:47.654Z,99925.63
2018-03-04T10:48:52.991Z,99925.63
2018-03-04T10:49:58.691Z,99927.80
2018-03-04T10:51:03.681Z,99930.43
2018-03-04T10:52:08.422Z,99934.80
2018-03-04T10:53:13.118Z,99933.92
2018-03-04T10:54:17.732Z,99931.73
2018-03-04T10:55:22.466Z,99925.18
2018-03-04T10:56:27.308Z,99932.19
2018-03-04T10:57:32.399Z,99929.55
2018-03-04T10:58:37.149Z,99930.85
2018-03-04T10:59:42.276Z,99920.77
2018-03-04T11:00:47.849Z,99920.71
2018-03-04T11:01:54.556Z,99914.08
2018-03-04T11:03:00.137Z,99922.91
2018-03-04T11:04:05.051Z,99919.33
2018-03-04T11:05:10.927Z,99922.38
2018-03-04T11:06:15.601Z,99920.16
2018-03-04T11:07:20.469Z,99927.21
2018-03-04T11:08:26.127Z,99915.00
2018-03-04T11:09:31.443Z,99912.83
2018-03-04T11:10:36.468Z,99917.20
2018-03-04T11:11:41.252Z,99913.19
2018-03-04T11:12:45.983Z,99907.45
2018-03-04T11:13:50.938Z,99914.05
2018-03-04T11:14:56.360Z,99921.52
2018-03-04T11:16:01.921Z,99919.30
2018-03-04T11:17:06.725Z,99918.41
2018-03-04T11:18:11.566Z,99921.95
2018-03-04T11:19:16.623Z,99926.42
2018-03-04T11:20:21.407Z,99934.31
2018-03-04T11:21:26.252Z,99931.23
2018-03-04T11:22:31.877Z,99938.22
2018-03-04T11:23:36.731Z,99935.15
2018-03-04T11:24:41.709Z,99925.98
2018-03-04T11:25:46.613Z,99917.67
2018-03-04T11:26:51.375Z,99907.46
2018-03-04T11:27:55.964Z,99894.16
2018-03-04T11:29:01.014Z,99891.02
2018-03-04T11:30:07.551Z,99894.41
2018-03-04T11:31:12.426Z,99894.61
2018-03-04T11:32:17.209Z,99894.63
2018-03-04T11:33:22.348Z,99897.27
2018-03-04T11:34:37.117Z,99895.66
2018-03-04T11:35:43.821Z,99897.14
2018-03-04T11:36:48.773Z,99890.54
2018-03-04T11:37:53.614Z,99883.98
2018-03-04T11:38:58.672Z,99884.72
2018-03-04T11:40:04.063Z,99877.73
2018-03-04T11:41:09.783Z,99879.45
2018-03-04T11:42:15.177Z,99878.95
2018-03-04T11:43:20.397Z,99874.66
2018-03-04T11:44:25.490Z,99881.72
2018-03-04T11:45:33.379Z,99876.42
2018-03-04T11:46:38.408Z,99877.70
2018-03-04T11:47:43.398Z,99873.34
2018-03-04T11:48:48.186Z,99875.81
2018-03-04T11:49:54.147Z,99864.64
2018-03-04T11:50:59.106Z,99863.89
2018-03-04T11:52:04.144Z,99863.16
2018-03-04T11:53:09.368Z,99860.83
2018-03-04T11:54:14.527Z,99859.13
2018-03-04T11:55:19.780Z,99859.41
2018-03-04T11:56:24.826Z,99858.64
2018-03-04T11:57:30.862Z,99853.62
2018-03-04T11:58:35.756Z,99854.27
2018-03-04T11:59:40.885Z,99852.59
2018-03-04T12:00:46.602Z,99842.18
2018-03-04T12:01:51.504Z,99843.89
2018-03-04T12:02:57.637Z,99840.86
2018-03-04T12:04:02.663Z,99842.41
2018-03-04T12:05:07.429Z,99836.90
2018-03-04T12:06:12.307Z,99841.16
2018-03-04T12:07:18.574Z,99844.88
2018-03-04T12:08:23.617Z,99836.80
2018-03-04T12:09:28.613Z,99836.37
2018-03-04T12:10:33.565Z,99838.48
2018-03-04T12:11:38.595Z,99854.06
2018-03-04T12:12:44.006Z,99848.56
2018-03-04T12:13:48.915Z,99846.56
2018-03-04T12:14:53.956Z,99847.25
2018-03-04T12:15:59.912Z,99849.16
2018-03-04T12:17:04.852Z,99852.78
2018-03-04T12:18:09.735Z,99848.70
2018-03-04T12:19:15.074Z,99849.20
2018-03-04T12:20:20.354Z,99842.61
2018-03-04T12:21:25.256Z,99835.88
2018-03-04T12:22:31.149Z,99840.41
2018-03-04T12:23:36.232Z,99842.47
2018-03-04T12:24:42.657Z,99839.51
2018-03-04T12:25:47.772Z,99836.86
2018-03-04T12:26:53.344Z,99839.16
2018-03-04T12:27:58.909Z,99840.85
2018-03-04T12:29:04.182Z,99836.47
2018-03-04T12:30:09.340Z,99836.78
2018-03-04T12:31:15.268Z,99842.08
2018-03-04T12:32:20.372Z,99844.34
2018-03-04T12:33:26.161Z,99844.36
2018-03-04T12:34:32.089Z,99846.05
2018-03-04T12:35:38.570Z,99836.17
2018-03-04T12:36:45.394Z,99838.34
2018-03-04T12:37:50.644Z,99831.48